createdAt,value
2023-05-09T00:00:45.464Z,4.67
2023-05-09T00:03:12.722Z,4.70
2023-05-09T00:05:39.296Z,4.70
2023-05-09T00:08:05.931Z,4.70
2023-05-09T00:10:32.509Z,4.71
2023-05-09T00:12:59.794Z,4.71
2023-05-09T00:15:26.831Z,4.70
2023-05-09T00:17:54.464Z,4.65
2023-05-09T00:20:21.777Z,4.60
2023-05-09T00:22:48.284Z,4.57
2023-05-09T00:25:15.004Z,4.57
2023-05-09T00:27:41.716Z,4.55
2023-05-09T00:30:08.695Z,4.52
2023-05-09T00:32:35.657Z,4.46
2023-05-09T00:35:02.228Z,4.37
2023-05-09T00:37:30.529Z,4.29
2023-05-09T00:39:57.045Z,4.21
2023-05-09T00:42:23.589Z,4.17
2023-05-09T00:44:50.070Z,4.11
2023-05-09T00:47:16.640Z,4.09
2023-05-09T00:49:43.203Z,4.06
2023-05-09T00:52:09.829Z,4.06
2023-05-09T00:54:36.449Z,4.03
2023-05-09T00:57:03.155Z,4.05
2023-05-09T00:59:29.625Z,4.06
2023-05-09T01:01:56.185Z,4.06
2023-05-09T01:04:22.988Z,4.03
2023-05-09T01:07:02.463Z,3.97
2023-05-09T01:10:07.692Z,3.89
2023-05-09T01:12:40.014Z,3.78
2023-05-09T01:15:26.788Z,3.74
2023-05-09T01:18:26.196Z,3.72
2023-05-09T01:21:11.218Z,3.67
2023-05-09T01:23:46.777Z,3.60
2023-05-09T01:26:38.142Z,3.48
2023-05-09T01:29:27.961Z,3.34
2023-05-09T01:31:57.551Z,3.22
2023-05-09T01:34:28.530Z,3.16
2023-05-09T01:36:59.820Z,3.13
2023-05-09T01:39:28.275Z,3.12
2023-05-09T01:41:58.026Z,3.08
2023-05-09T01:44:25.917Z,3.06
2023-05-09T01:46:54.728Z,3.03
2023-05-09T01:49:22.740Z,3.02
2023-05-09T01:51:50.624Z,3.01
2023-05-09T01:54:18.675Z,2.98
2023-05-09T01:56:46.762Z,2.97
2023-05-09T01:59:16.204Z,2.95
2023-05-09T02:01:44.670Z,2.91
2023-05-09T02:04:11.855Z,2.89
2023-05-09T02:06:39.137Z,2.90
2023-05-09T02:09:05.812Z,2.89
2023-05-09T02:11:32.334Z,2.86
2023-05-09T02:13:59.098Z,2.84
2023-05-09T02:16:26.391Z,2.82
2023-05-09T02:18:52.816Z,2.76
2023-05-09T02:21:19.392Z,2.69
2023-05-09T02:23:46.478Z,2.65
2023-05-09T02:26:14.062Z,2.61
2023-05-09T02:28:44.146Z,2.56
2023-05-09T02:31:13.156Z,2.49
2023-05-09T02:33:42.625Z,2.43
2023-05-09T02:36:09.964Z,2.38
2023-05-09T02:38:36.868Z,2.38
2023-05-09T02:41:03.439Z,2.33
2023-05-09T02:43:29.995Z,2.33
2023-05-09T02:45:56.527Z,2.33
2023-05-09T02:48:23.272Z,2.33
2023-05-09T02:50:49.817Z,2.33
2023-05-09T02:53:16.312Z,2.31
2023-05-09T02:55:42.842Z,2.31
2023-05-09T02:58:14.190Z,2.30
2023-05-09T03:00:41.731Z,2.31
2023-05-09T03:03:08.893Z,2.31
2023-05-09T03:05:35.461Z,2.29
2023-05-09T03:08:01.877Z,2.26
2023-05-09T03:10:28.385Z,2.26
2023-05-09T03:12:54.936Z,2.29
2023-05-09T03:15:21.580Z,2.33
2023-05-09T03:17:48.154Z,2.37
2023-05-09T03:20:15.815Z,2.42
2023-05-09T03:22:42.409Z,2.47
2023-05-09T03:25:09.524Z,2.50
2023-05-09T03:27:36.132Z,2.56
2023-05-09T03:30:02.836Z,2.62
2023-05-09T03:32:29.442Z,2.66
2023-05-09T03:34:56.004Z,2.69
2023-05-09T03:37:22.848Z,2.69
2023-05-09T03:39:50.305Z,2.72
2023-05-09T03:42:16.788Z,2.79
2023-05-09T03:44:43.319Z,2.86
2023-05-09T03:47:09.810Z,2.93
2023-05-09T03:49:36.283Z,2.95
2023-05-09T03:52:03.461Z,3.03
2023-05-09T03:54:30.078Z,3.13
2023-05-09T03:56:56.624Z,3.23
2023-05-09T03:59:23.063Z,3.35
2023-05-09T04:01:49.596Z,3.53
2023-05-09T04:04:16.257Z,3.79
2023-05-09T04:06:42.706Z,4.12
2023-05-09T04:09:09.483Z,4.37
2023-05-09T04:11:35.973Z,4.51
2023-05-09T04:14:06.964Z,4.63
2023-05-09T04:16:33.672Z,4.70
2023-05-09T04:19:00.265Z,4.77
2023-05-09T04:21:26.829Z,4.85
2023-05-09T04:23:53.400Z,4.94
2023-05-09T04:26:22.531Z,5.04
2023-05-09T04:28:49.074Z,5.16
2023-05-09T04:31:15.739Z,5.25
2023-05-09T04:33:42.240Z,5.36
2023-05-09T04:36:09.027Z,5.47
2023-05-09T04:38:35.548Z,5.60
2023-05-09T04:41:02.070Z,5.78
2023-05-09T04:43:29.092Z,6.01
2023-05-09T04:45:55.743Z,6.20
2023-05-09T04:48:22.345Z,6.38
2023-05-09T04:50:49.170Z,6.50
2023-05-09T04:53:15.720Z,6.60
2023-05-09T04:55:42.160Z,6.71
2023-05-09T04:58:09.705Z,6.84
2023-05-09T05:00:36.393Z,6.93
2023-05-09T05:03:03.131Z,7.00
2023-05-09T05:05:30.083Z,7.12
2023-05-09T05:07:56.858Z,7.24
2023-05-09T05:10:23.407Z,7.37
2023-05-09T05:12:50.125Z,7.59
2023-05-09T05:15:19.309Z,7.88
2023-05-09T05:17:45.875Z,8.51
2023-05-09T05:20:12.720Z,9.15
2023-05-09T05:22:39.209Z,10.02
2023-05-09T05:25:06.446Z,10.74
2023-05-09T05:27:32.946Z,11.55
2023-05-09T05:29:59.547Z,12.15
2023-05-09T05:32:26.221Z,12.84
2023-05-09T05:34:52.752Z,13.48
2023-05-09T05:37:19.207Z,14.08
2023-05-09T05:39:45.715Z,14.68
2023-05-09T05:42:12.229Z,14.84
2023-05-09T05:44:38.676Z,15.11
2023-05-09T05:47:05.169Z,15.17
2023-05-09T05:49:31.634Z,15.61
2023-05-09T05:51:58.066Z,15.53
2023-05-09T05:54:24.582Z,15.70
2023-05-09T05:56:51.103Z,16.09
2023-05-09T05:59:17.555Z,16.35
2023-05-09T06:01:44.101Z,16.71
2023-05-09T06:04:10.745Z,17.26
2023-05-09T06:06:37.290Z,17.74
2023-05-09T06:09:03.818Z,18.12
2023-05-09T06:11:30.437Z,18.55
2023-05-09T06:13:56.997Z,18.87
2023-05-09T06:16:23.569Z,19.07
2023-05-09T06:18:50.235Z,19.77
2023-05-09T06:21:16.800Z,20.18
2023-05-09T06:24:01.513Z,20.71
2023-05-09T06:26:29.985Z,20.50
2023-05-09T06:28:56.580Z,20.60
2023-05-09T06:31:25.415Z,20.48
2023-05-09T06:33:52.249Z,20.66
2023-05-09T06:36:18.815Z,20.51
2023-05-09T06:38:45.273Z,20.29
2023-05-09T06:41:11.772Z,19.29
2023-05-09T06:43:38.238Z,19.04
2023-05-09T06:46:04.742Z,19.20
2023-05-09T06:48:31.330Z,18.83
2023-05-09T06:50:57.846Z,19.05
2023-05-09T06:53:24.346Z,19.32
2023-05-09T06:55:50.939Z,19.18
2023-05-09T06:58:17.519Z,19.45
2023-05-09T07:00:44.006Z,19.12
2023-05-09T07:03:11.657Z,19.34
2023-05-09T07:05:38.392Z,19.50
2023-05-09T07:08:05.271Z,19.64
2023-05-09T07:10:32.025Z,19.66
2023-05-09T07:12:58.764Z,19.42
2023-05-09T07:15:39.803Z,19.20
2023-05-09T07:18:07.521Z,19.13
2023-05-09T07:20:34.000Z,18.75
2023-05-09T07:23:00.600Z,18.97
2023-05-09T07:25:27.129Z,19.23
2023-05-09T07:27:53.684Z,18.79
2023-05-09T07:30:20.309Z,17.32
2023-05-09T07:32:47.015Z,15.97
2023-05-09T07:35:13.875Z,14.91
2023-05-09T07:37:40.775Z,14.38
2023-05-09T07:40:08.047Z,14.11
2023-05-09T07:42:34.637Z,14.00
2023-05-09T07:45:01.333Z,13.94
2023-05-09T07:47:27.870Z,13.72
2023-05-09T07:49:54.355Z,13.45
2023-05-09T07:52:21.059Z,13.54
2023-05-09T07:54:47.595Z,13.52
2023-05-09T07:57:14.442Z,13.51
2023-05-09T07:59:41.226Z,13.57
2023-05-09T08:02:08.407Z,13.70
2023-05-09T08:04:38.166Z,13.58
2023-05-09T08:07:04.974Z,13.46
2023-05-09T08:09:31.497Z,13.59
2023-05-09T08:11:58.527Z,13.70
2023-05-09T08:14:25.321Z,13.88
2023-05-09T08:16:51.778Z,13.87
2023-05-09T08:19:18.311Z,13.91
2023-05-09T08:21:44.776Z,13.94
2023-05-09T08:24:11.260Z,13.98
2023-05-09T08:26:37.756Z,13.85
2023-05-09T08:29:04.360Z,13.79
2023-05-09T08:31:30.929Z,13.90
2023-05-09T08:33:57.498Z,13.87
2023-05-09T08:36:24.070Z,13.89
2023-05-09T08:38:50.626Z,13.91
2023-05-09T08:41:17.217Z,13.95
2023-05-09T08:43:44.667Z,13.86
2023-05-09T08:46:12.291Z,14.00
2023-05-09T08:48:39.722Z,14.00
2023-05-09T08:51:07.426Z,14.06
2023-05-09T08:53:34.511Z,14.15
2023-05-09T08:56:02.767Z,14.11
2023-05-09T08:58:30.521Z,14.28
2023-05-09T09:00:57.429Z,14.44
2023-05-09T09:03:26.307Z,14.44
2023-05-09T09:05:54.965Z,14.37
2023-05-09T09:08:22.932Z,14.47
2023-05-09T09:10:49.734Z,14.47
2023-05-09T09:13:17.707Z,14.50
2023-05-09T09:15:46.668Z,14.67
2023-05-09T09:18:22.694Z,14.73
2023-05-09T09:20:57.879Z,14.93
2023-05-09T09:23:26.734Z,14.74
2023-05-09T09:26:01.398Z,14.78
2023-05-09T09:28:28.487Z,14.78
2023-05-09T09:30:55.037Z,14.72
2023-05-09T09:33:23.151Z,14.68
2023-05-09T09:35:51.518Z,14.72
2023-05-09T09:38:22.135Z,14.74
2023-05-09T09:40:51.621Z,14.76
2023-05-09T09:43:18.740Z,14.79
2023-05-09T09:45:50.617Z,14.89
2023-05-09T09:48:17.139Z,14.90
2023-05-09T09:50:43.618Z,14.86
2023-05-09T09:53:10.290Z,14.67
2023-05-09T09:55:36.961Z,14.78
2023-05-09T09:58:15.810Z,14.85
2023-05-09T10:00:42.380Z,14.94
2023-05-09T10:03:15.075Z,15.03
2023-05-09T10:05:41.926Z,15.05
2023-05-09T10:08:09.423Z,15.12
2023-05-09T10:10:36.968Z,15.29
2023-05-09T10:13:07.472Z,15.25
2023-05-09T10:15:49.031Z,15.18
2023-05-09T10:18:25.092Z,15.25
2023-05-09T10:20:53.108Z,15.33
2023-05-09T10:23:20.860Z,15.52
2023-05-09T10:25:53.672Z,15.62
2023-05-09T10:28:26.216Z,15.60
2023-05-09T10:31:11.666Z,15.44
2023-05-09T10:33:43.803Z,15.46
2023-05-09T10:36:12.047Z,15.34
2023-05-09T10:38:39.740Z,15.55
2023-05-09T10:41:06.469Z,15.60
2023-05-09T10:43:34.821Z,15.58
2023-05-09T10:46:04.641Z,15.68
2023-05-09T10:48:33.712Z,15.71
2023-05-09T10:51:02.485Z,15.67
2023-05-09T10:53:46.077Z,15.82
2023-05-09T10:56:36.163Z,16.00
2023-05-09T10:59:02.832Z,15.95
2023-05-09T11:01:39.647Z,16.00
2023-05-09T11:04:11.180Z,16.00
2023-05-09T11:06:52.178Z,16.02
2023-05-09T11:09:33.392Z,16.07
2023-05-09T11:12:10.324Z,15.84
2023-05-09T11:14:42.966Z,15.84
2023-05-09T11:17:23.534Z,15.71
2023-05-09T11:19:50.318Z,15.77
2023-05-09T11:22:19.894Z,15.80
2023-05-09T11:24:50.891Z,15.83
2023-05-09T11:27:26.065Z,15.90
2023-05-09T11:30:05.397Z,15.96
2023-05-09T11:32:33.183Z,16.07
2023-05-09T11:35:10.951Z,15.95
2023-05-09T11:37:51.164Z,15.97
2023-05-09T11:40:19.549Z,16.05
2023-05-09T11:42:49.834Z,16.13
2023-05-09T11:45:17.537Z,16.25
2023-05-09T11:47:46.082Z,16.47
2023-05-09T11:50:14.198Z,16.50
2023-05-09T11:52:41.928Z,16.44
2023-05-09T11:55:12.533Z,16.39
2023-05-09T11:57:47.774Z,16.34
2023-05-09T12:00:19.683Z,16.38
2023-05-09T12:02:46.838Z,16.59
2023-05-09T12:05:16.666Z,16.67
2023-05-09T12:07:43.577Z,16.67
2023-05-09T12:10:19.178Z,16.75
2023-05-09T12:12:50.828Z,16.71
2023-05-09T12:15:18.868Z,16.68
2023-05-09T12:17:49.647Z,16.69
2023-05-09T12:20:17.846Z,16.69
2023-05-09T12:22:44.409Z,16.64
2023-05-09T12:25:11.989Z,16.66
2023-05-09T12:27:40.516Z,16.85
2023-05-09T12:30:10.220Z,16.92
2023-05-09T12:32:39.492Z,16.91
2023-05-09T12:35:12.050Z,17.02
2023-05-09T12:37:39.140Z,17.03
2023-05-09T12:40:11.322Z,17.16
2023-05-09T12:42:38.251Z,17.16
2023-05-09T12:45:08.594Z,17.19
2023-05-09T12:47:35.443Z,16.95
2023-05-09T12:50:04.286Z,16.99
2023-05-09T12:52:47.010Z,17.08
2023-05-09T12:55:25.343Z,17.17
2023-05-09T12:58:03.264Z,17.25
2023-05-09T13:00:42.432Z,17.12
2023-05-09T13:03:39.659Z,17.10
2023-05-09T13:06:13.114Z,17.22
2023-05-09T13:08:40.466Z,17.31
2023-05-09T13:13:41.284Z,17.54
2023-05-09T13:16:10.074Z,17.66
2023-05-09T13:18:37.584Z,17.74
2023-05-09T13:21:04.136Z,17.67
2023-05-09T13:23:30.615Z,17.54
2023-05-09T13:25:57.103Z,17.48
2023-05-09T13:28:23.674Z,17.56
2023-05-09T13:30:50.223Z,17.61
2023-05-09T13:33:25.240Z,17.62
2023-05-09T13:35:52.778Z,17.74
2023-05-09T13:38:19.430Z,17.71
2023-05-09T13:40:46.326Z,17.78
2023-05-09T13:43:12.879Z,17.83
2023-05-09T13:45:39.485Z,17.88
2023-05-09T13:48:07.674Z,17.92
2023-05-09T13:50:34.329Z,17.98
2023-05-09T13:53:01.144Z,17.88
2023-05-09T13:55:27.727Z,17.77
2023-05-09T13:57:54.828Z,17.77
2023-05-09T14:00:22.105Z,17.73
2023-05-09T14:02:48.720Z,17.77
2023-05-09T14:05:15.485Z,17.80
2023-05-09T14:07:42.746Z,17.83
2023-05-09T14:10:11.749Z,17.86
2023-05-09T14:12:40.087Z,18.00
2023-05-09T14:15:08.284Z,18.01
2023-05-09T14:17:34.977Z,17.94
2023-05-09T14:20:01.742Z,17.93
2023-05-09T14:22:28.368Z,17.91
2023-05-09T14:24:56.588Z,17.92
2023-05-09T14:27:23.455Z,17.97
2023-05-09T14:29:49.980Z,17.98
2023-05-09T14:32:17.456Z,17.97
2023-05-09T14:34:44.041Z,18.12
2023-05-09T14:37:14.081Z,18.17
2023-05-09T14:39:42.500Z,18.11
2023-05-09T14:42:11.413Z,18.16
2023-05-09T14:44:38.735Z,18.21
2023-05-09T14:47:05.456Z,18.25
2023-05-09T14:49:32.513Z,18.34
2023-05-09T14:51:59.229Z,18.29
2023-05-09T14:54:26.135Z,18.16
2023-05-09T14:56:52.780Z,18.15
2023-05-09T14:59:19.239Z,18.26
2023-05-09T15:01:46.248Z,18.30
2023-05-09T15:04:12.898Z,18.23
2023-05-09T15:06:39.753Z,18.32
2023-05-09T15:09:06.452Z,18.17
2023-05-09T15:11:43.695Z,18.13
2023-05-09T15:14:13.906Z,17.95
2023-05-09T15:16:40.653Z,17.98
2023-05-09T15:19:08.170Z,17.95
2023-05-09T15:21:35.055Z,18.12
2023-05-09T15:24:02.538Z,18.08
2023-05-09T15:26:29.390Z,18.00
2023-05-09T15:28:56.011Z,17.98
2023-05-09T15:31:26.519Z,17.91
2023-05-09T15:33:55.672Z,17.87
2023-05-09T15:36:22.321Z,17.90
2023-05-09T15:38:49.767Z,17.94
2023-05-09T15:41:16.751Z,17.88
2023-05-09T15:43:43.291Z,17.93
2023-05-09T15:46:09.858Z,17.95
2023-05-09T15:48:36.502Z,18.04
2023-05-09T15:51:06.539Z,17.99
2023-05-09T15:53:33.165Z,17.96
2023-05-09T15:56:01.379Z,17.94
2023-05-09T15:58:28.028Z,17.79
2023-05-09T16:00:54.608Z,17.77
2023-05-09T16:03:21.803Z,17.88
2023-05-09T16:05:48.608Z,18.02
2023-05-09T16:08:15.170Z,18.00
2023-05-09T16:10:41.737Z,17.90
2023-05-09T16:13:08.754Z,17.94
2023-05-09T16:15:35.797Z,17.94
2023-05-09T16:18:02.353Z,17.91
2023-05-09T16:20:31.946Z,17.98
2023-05-09T16:22:58.677Z,18.00
2023-05-09T16:25:25.222Z,18.09
2023-05-09T16:27:53.529Z,18.05
2023-05-09T16:30:19.975Z,17.98
2023-05-09T16:32:46.853Z,17.99
2023-05-09T16:35:13.906Z,18.03
2023-05-09T16:37:40.734Z,18.01
2023-05-09T16:40:07.903Z,17.95
2023-05-09T16:42:34.444Z,17.99
2023-05-09T16:45:01.262Z,17.98
2023-05-09T16:47:27.796Z,17.85
2023-05-09T16:49:54.286Z,17.71
2023-05-09T16:52:20.988Z,17.51
2023-05-09T16:54:49.149Z,17.51
2023-05-09T16:57:15.745Z,17.59
2023-05-09T16:59:42.465Z,17.50
2023-05-09T17:02:08.982Z,17.47
2023-05-09T17:04:37.555Z,17.48
2023-05-09T17:07:04.434Z,17.44
2023-05-09T17:09:31.141Z,17.44
2023-05-09T17:11:57.717Z,17.39
2023-05-09T17:14:24.357Z,17.40
2023-05-09T17:16:50.909Z,17.36
2023-05-09T17:19:17.589Z,17.33
2023-05-09T17:21:44.316Z,17.30
2023-05-09T17:24:11.007Z,17.18
2023-05-09T17:26:38.633Z,17.16
2023-05-09T17:29:05.814Z,17.19
2023-05-09T17:31:32.667Z,17.10
2023-05-09T17:33:59.248Z,17.20
2023-05-09T17:36:25.945Z,17.17
2023-05-09T17:38:52.679Z,17.17
2023-05-09T17:41:19.454Z,17.16
2023-05-09T17:43:46.103Z,17.12
2023-05-09T17:46:14.773Z,17.15
2023-05-09T17:48:41.984Z,17.10
2023-05-09T17:51:08.499Z,17.15
2023-05-09T17:53:35.188Z,17.15
2023-05-09T17:56:01.932Z,17.19
2023-05-09T17:58:28.582Z,17.12
2023-05-09T18:00:55.169Z,17.12
2023-05-09T18:03:21.839Z,17.17
2023-05-09T18:05:48.748Z,17.19
2023-05-09T18:08:15.301Z,17.17
2023-05-09T18:10:42.002Z,16.95
2023-05-09T18:13:08.664Z,16.75
2023-05-09T18:15:38.266Z,16.38
2023-05-09T18:18:06.300Z,16.08
2023-05-09T18:20:33.093Z,15.81
2023-05-09T18:22:59.909Z,15.45
2023-05-09T18:25:26.501Z,15.08
2023-05-09T18:27:53.039Z,14.80
2023-05-09T18:30:21.836Z,14.63
2023-05-09T18:32:48.475Z,14.44
2023-05-09T18:35:15.765Z,14.29
2023-05-09T18:37:42.271Z,14.17
2023-05-09T18:40:14.744Z,14.04
2023-05-09T18:42:41.991Z,13.89
2023-05-09T18:45:10.084Z,13.74
2023-05-09T18:47:37.457Z,13.59
2023-05-09T18:50:05.716Z,13.47
2023-05-09T18:52:32.567Z,13.33
2023-05-09T18:54:59.066Z,13.24
2023-05-09T18:57:26.072Z,13.17
2023-05-09T18:59:52.951Z,13.05
2023-05-09T19:02:20.606Z,12.95
2023-05-09T19:04:48.159Z,12.89
2023-05-09T19:07:15.095Z,12.80
2023-05-09T19:09:42.132Z,12.75
2023-05-09T19:12:09.868Z,12.66
2023-05-09T19:14:37.816Z,12.59
2023-05-09T19:17:05.592Z,12.53
2023-05-09T19:19:32.449Z,12.48
2023-05-09T19:22:00.076Z,12.40
2023-05-09T19:24:26.757Z,12.35
2023-05-09T19:26:53.392Z,12.33
2023-05-09T19:29:20.013Z,12.29
2023-05-09T19:31:46.529Z,12.25
2023-05-09T19:34:13.550Z,12.19
2023-05-09T19:36:40.257Z,12.15
2023-05-09T19:39:08.875Z,12.13
2023-05-09T19:41:35.556Z,12.12
2023-05-09T19:44:02.210Z,12.06
2023-05-09T19:46:28.999Z,12.04
2023-05-09T19:48:55.737Z,12.02
2023-05-09T19:51:22.202Z,12.03
2023-05-09T19:53:48.999Z,11.97
2023-05-09T19:56:15.577Z,11.88
2023-05-09T19:58:42.077Z,11.84
2023-05-09T20:01:08.769Z,11.84
2023-05-09T20:03:37.008Z,11.78
2023-05-09T20:06:04.268Z,11.71
2023-05-09T20:08:31.261Z,11.66
2023-05-09T20:10:59.428Z,11.63
2023-05-09T20:13:26.820Z,11.58
2023-05-09T20:15:53.615Z,11.54
2023-05-09T20:18:20.122Z,11.48
2023-05-09T20:20:46.812Z,11.44
2023-05-09T20:23:13.361Z,11.42
2023-05-09T20:25:40.085Z,11.38
2023-05-09T20:28:06.941Z,11.35
2023-05-09T20:30:33.582Z,11.31
2023-05-09T20:33:01.164Z,11.22
2023-05-09T20:35:28.012Z,11.15
2023-05-09T20:37:54.891Z,11.06
2023-05-09T20:40:21.450Z,10.98
2023-05-09T20:42:48.010Z,10.87
2023-05-09T20:45:14.573Z,10.82
2023-05-09T20:47:41.382Z,10.74
2023-05-09T20:50:08.421Z,10.68
2023-05-09T20:52:34.954Z,10.61
2023-05-09T20:55:01.977Z,10.56
2023-05-09T20:57:28.666Z,10.55
2023-05-09T20:59:55.285Z,10.50
2023-05-09T21:02:21.958Z,10.43
2023-05-09T21:04:48.613Z,10.36
2023-05-09T21:07:19.099Z,10.32
2023-05-09T21:09:49.809Z,10.26
2023-05-09T21:12:16.853Z,10.24
2023-05-09T21:14:44.830Z,10.20
2023-05-09T21:17:12.062Z,10.18
2023-05-09T21:19:38.746Z,10.12
2023-05-09T21:22:05.261Z,10.09
2023-05-09T21:24:31.769Z,10.05
2023-05-09T21:26:58.431Z,10.02
2023-05-09T21:29:25.011Z,9.98
2023-05-09T21:31:51.661Z,9.94
2023-05-09T21:34:18.735Z,9.94
2023-05-09T21:36:45.463Z,9.99
2023-05-09T21:39:12.152Z,10.02
2023-05-09T21:41:40.405Z,10.01
2023-05-09T21:44:07.871Z,10.00
2023-05-09T21:46:35.525Z,9.99
2023-05-09T21:49:02.196Z,10.00
2023-05-09T21:51:29.434Z,9.98
2023-05-09T21:53:56.039Z,9.95
2023-05-09T21:56:23.154Z,9.94
2023-05-09T21:58:49.753Z,9.97
2023-05-09T22:01:16.849Z,9.96
2023-05-09T22:03:43.674Z,9.98
2023-05-09T22:06:11.470Z,9.96
2023-05-09T22:08:38.131Z,9.97
2023-05-09T22:11:04.730Z,9.96
2023-05-09T22:13:31.539Z,9.98
2023-05-09T22:15:58.054Z,9.98
2023-05-09T22:18:24.597Z,9.97
2023-05-09T22:20:51.098Z,9.95
2023-05-09T22:23:17.618Z,9.93
2023-05-09T22:44:39.583Z,9.59
2023-05-09T22:47:09.790Z,9.56
2023-05-09T22:49:36.334Z,9.55
2023-05-09T22:52:03.207Z,9.48
2023-05-09T22:54:29.718Z,9.44
2023-05-09T22:56:56.189Z,9.42
2023-05-09T22:59:23.002Z,9.40
2023-05-09T23:01:49.549Z,9.37
2023-05-09T23:04:16.057Z,9.31
2023-05-09T23:06:42.708Z,9.30
2023-05-09T23:09:09.213Z,9.28
2023-05-09T23:11:35.744Z,9.25
2023-05-09T23:14:02.724Z,9.21
2023-05-09T23:16:29.316Z,9.13
2023-05-09T23:18:55.896Z,9.08
2023-05-09T23:21:22.400Z,8.95
2023-05-09T23:23:48.923Z,8.83
2023-05-09T23:26:15.508Z,8.73
2023-05-09T23:28:42.065Z,8.70
2023-05-09T23:31:33.302Z,8.63
2023-05-09T23:33:59.913Z,8.59
2023-05-09T23:36:26.729Z,8.57
2023-05-09T23:38:53.240Z,8.51
2023-05-09T23:41:21.913Z,8.52
2023-05-09T23:43:48.358Z,8.53
2023-05-09T23:46:14.817Z,8.49
2023-05-09T23:48:41.554Z,8.50
2023-05-09T23:51:08.225Z,8.49
